sensor_id;sensor_type;location;lat;lon;timestamp;pressure;altitude;pressure_sealevel;temperature;humidity
51359;BME280;37448;51.588;7.248;2023-04-01T00:01:15;98719.41;;;8.29;96.36
51359;BME280;37448;51.588;7.248;2023-04-01T00:03:16;98723.69;;;8.30;96.30
51359;BME280;37448;51.588;7.248;2023-04-01T00:05:17;98717.56;;;8.31;96.37
51359;BME280;37448;51.588;7.248;2023-04-01T00:07:17;98718.63;;;8.27;96.28
51359;BME280;37448;51.588;7.248;2023-04-01T00:09:18;98719.41;;;8.29;96.99
51359;BME280;37448;51.588;7.248;2023-04-01T00:11:18;98721.16;;;8.29;96.69
51359;BME280;37448;51.588;7.248;2023-04-01T00:13:20;98715.09;;;8.28;96.27
51359;BME280;37448;51.588;7.248;2023-04-01T00:15:20;98724.69;;;8.28;96.66
51359;BME280;37448;51.588;7.248;2023-04-01T00:17:21;98723.81;;;8.27;96.30
51359;BME280;37448;51.588;7.248;2023-04-01T00:19:21;98716.94;;;8.26;96.53
51359;BME280;37448;51.588;7.248;2023-04-01T00:21:22;98726.56;;;8.24;96.30
51359;BME280;37448;51.588;7.248;2023-04-01T00:23:22;98723.97;;;8.24;96.98
51359;BME280;37448;51.588;7.248;2023-04-01T00:25:23;98720.53;;;8.24;97.14
51359;BME280;37448;51.588;7.248;2023-04-01T00:27:23;98723.81;;;8.27;97.07
51359;BME280;37448;51.588;7.248;2023-04-01T00:29:23;98723.97;;;8.24;96.98
51359;BME280;37448;51.588;7.248;2023-04-01T00:31:28;98713.69;;;8.21;97.55
51359;BME280;37448;51.588;7.248;2023-04-01T00:33:29;98717.97;;;8.22;96.96
51359;BME280;37448;51.588;7.248;2023-04-01T00:35:30;98712.88;;;8.21;97.09
51359;BME280;37448;51.588;7.248;2023-04-01T00:37:34;98717.19;;;8.20;96.87
51359;BME280;37448;51.588;7.248;2023-04-01T00:39:35;98707.75;;;8.17;97.22
51359;BME280;37448;51.588;7.248;2023-04-01T00:41:36;98712.91;;;8.19;97.70
51359;BME280;37448;51.588;7.248;2023-04-01T00:43:36;98719.81;;;8.20;97.52
51359;BME280;37448;51.588;7.248;2023-04-01T00:45:39;98718.94;;;8.19;97.31
51359;BME280;37448;51.588;7.248;2023-04-01T00:47:41;98711.09;;;8.21;97.02
51359;BME280;37448;51.588;7.248;2023-04-01T00:49:44;98713.09;;;8.14;96.97
51359;BME280;37448;51.588;7.248;2023-04-01T00:51:48;98712.97;;;8.17;97.12
51359;BME280;37448;51.588;7.248;2023-04-01T00:53:52;98710.44;;;8.16;97.94
51359;BME280;37448;51.588;7.248;2023-04-01T00:55:57;98708.63;;;8.18;97.96
51359;BME280;37448;51.588;7.248;2023-04-01T00:57:59;98710.31;;;8.19;97.86
51359;BME280;37448;51.588;7.248;2023-04-01T01:00:05;98708.75;;;8.15;98.11
51359;BME280;37448;51.588;7.248;2023-04-01T01:02:10;98710.44;;;8.16;97.72
51359;BME280;37448;51.588;7.248;2023-04-01T01:04:27;98700.88;;;8.16;97.92
51359;BME280;37448;51.588;7.248;2023-04-01T01:10:49;98701.88;;;8.14;97.80
51359;BME280;37448;51.588;7.248;2023-04-01T01:22:44;98702.69;;;8.14;98.38
51359;BME280;37448;51.588;7.248;2023-04-01T01:27:17;98705.38;;;8.13;98.64
51359;BME280;37448;51.588;7.248;2023-04-01T01:36:58;98702.84;;;8.11;98.52
51359;BME280;37448;51.588;7.248;2023-04-01T01:39:03;98699.50;;;8.08;98.07
51359;BME280;37448;51.588;7.248;2023-04-01T01:41:07;98702.00;;;8.11;98.28
51359;BME280;37448;51.588;7.248;2023-04-01T01:43:09;98702.91;;;8.10;98.38
51359;BME280;37448;51.588;7.248;2023-04-01T01:45:13;98699.59;;;8.06;97.64
51359;BME280;37448;51.588;7.248;2023-04-01T01:47:15;98691.00;;;8.04;98.00
51359;BME280;37448;51.588;7.248;2023-04-01T01:49:17;98699.63;;;8.04;98.46
51359;BME280;37448;51.588;7.248;2023-04-01T01:51:20;98696.13;;;8.05;97.72
51359;BME280;37448;51.588;7.248;2023-04-01T01:53:21;98693.66;;;8.02;98.14
51359;BME280;37448;51.588;7.248;2023-04-01T01:55:26;98697.94;;;8.03;98.79
51359;BME280;37448;51.588;7.248;2023-04-01T01:57:33;98697.03;;;8.04;98.43
51359;BME280;37448;51.588;7.248;2023-04-01T01:59:38;98691.84;;;8.04;98.39
51359;BME280;37448;51.588;7.248;2023-04-01T02:01:43;98693.53;;;8.05;98.63
51359;BME280;37448;51.588;7.248;2023-04-01T02:03:47;98684.94;;;8.03;98.75
51359;BME280;37448;51.588;7.248;2023-04-01T02:05:50;98692.75;;;8.03;98.68
51359;BME280;37448;51.588;7.248;2023-04-01T02:08:05;98693.66;;;8.02;98.51
51359;BME280;37448;51.588;7.248;2023-04-01T02:10:07;98688.47;;;8.02;98.29
51359;BME280;37448;51.588;7.248;2023-04-01T02:12:09;98680.75;;;8.01;98.20
51359;BME280;37448;51.588;7.248;2023-04-01T02:14:16;98682.22;;;8.07;98.48
51359;BME280;37448;51.588;7.248;2023-04-01T02:16:31;98680.53;;;8.05;99.18
51359;BME280;37448;51.588;7.248;2023-04-01T02:18:36;98685.94;;;8.01;98.40
51359;BME280;37448;51.588;7.248;2023-04-01T02:20:39;98687.69;;;8.00;97.73
51359;BME280;37448;51.588;7.248;2023-04-01T02:22:44;98679.09;;;7.98;97.98
51359;BME280;37448;51.588;7.248;2023-04-01T02:24:49;98680.09;;;7.96;98.27
51359;BME280;37448;51.588;7.248;2023-04-01T02:26:51;98686.13;;;7.96;98.09
51359;BME280;37448;51.588;7.248;2023-04-01T02:28:54;98675.72;;;7.96;98.25
51359;BME280;37448;51.588;7.248;2023-04-01T02:30:57;98686.91;;;7.98;98.10
51359;BME280;37448;51.588;7.248;2023-04-01T02:33:01;98685.09;;;8.00;98.58
51359;BME280;37448;51.588;7.248;2023-04-01T02:35:01;98685.22;;;7.97;98.73
51359;BME280;37448;51.588;7.248;2023-04-01T02:37:06;98680.03;;;7.97;98.15
51359;BME280;37448;51.588;7.248;2023-04-01T02:39:07;98682.75;;;7.94;98.00
51359;BME280;37448;51.588;7.248;2023-04-01T02:41:08;98686.06;;;7.98;98.47
51359;BME280;37448;51.588;7.248;2023-04-01T02:43:08;98687.00;;;7.97;98.73
51359;BME280;37448;51.588;7.248;2023-04-01T02:45:10;98690.41;;;7.97;98.88
51359;BME280;37448;51.588;7.248;2023-04-01T02:47:10;98693.09;;;7.96;98.13
51359;BME280;37448;51.588;7.248;2023-04-01T02:49:11;98686.19;;;7.95;98.59
51359;BME280;37448;51.588;7.248;2023-04-01T02:51:11;98681.09;;;7.92;98.33
51359;BME280;37448;51.588;7.248;2023-04-01T02:53:12;98700.22;;;7.90;98.41
51359;BME280;37448;51.588;7.248;2023-04-01T02:55:12;98694.09;;;7.92;97.98
51359;BME280;37448;51.588;7.248;2023-04-01T02:57:12;98693.94;;;7.96;98.82
51359;BME280;37448;51.588;7.248;2023-04-01T02:59:13;98695.78;;;7.93;99.07
51359;BME280;37448;51.588;7.248;2023-04-01T03:01:13;98688.09;;;7.91;98.29
51359;BME280;37448;51.588;7.248;2023-04-01T03:03:14;98694.06;;;7.93;98.82
51359;BME280;37448;51.588;7.248;2023-04-01T03:05:14;98695.09;;;7.89;98.28
51359;BME280;37448;51.588;7.248;2023-04-01T03:07:15;98701.97;;;7.90;99.05
51359;BME280;37448;51.588;7.248;2023-04-01T03:09:15;98697.69;;;7.89;98.28
51359;BME280;37448;51.588;7.248;2023-04-01T03:11:16;98698.66;;;7.86;98.71
51359;BME280;37448;51.588;7.248;2023-04-01T03:13:16;98698.59;;;7.88;98.73
51359;BME280;37448;51.588;7.248;2023-04-01T03:15:17;98704.50;;;7.92;98.52
51359;BME280;37448;51.588;7.248;2023-04-01T03:17:17;98706.28;;;7.91;98.49
51359;BME280;37448;51.588;7.248;2023-04-01T03:19:18;98709.78;;;7.90;98.66
51359;BME280;37448;51.588;7.248;2023-04-01T03:21:21;98703.72;;;7.89;98.73
51359;BME280;37448;51.588;7.248;2023-04-01T03:23:21;98705.50;;;7.89;98.76
51359;BME280;37448;51.588;7.248;2023-04-01T03:25:24;98715.09;;;7.87;98.79
51359;BME280;37448;51.588;7.248;2023-04-01T03:27:25;98716.06;;;7.84;98.53
51359;BME280;37448;51.588;7.248;2023-04-01T03:29:25;98715.09;;;7.87;98.62
51359;BME280;37448;51.588;7.248;2023-04-01T03:31:26;98719.44;;;7.86;98.83
51359;BME280;37448;51.588;7.248;2023-04-01T03:33:30;98710.09;;;7.82;98.41
51359;BME280;37448;51.588;7.248;2023-04-01T03:35:31;98721.13;;;7.87;99.37
51359;BME280;37448;51.588;7.248;2023-04-01T03:37:31;98727.31;;;7.85;99.04
51359;BME280;37448;51.588;7.248;2023-04-01T03:39:32;98716.81;;;7.88;98.58
51359;BME280;37448;51.588;7.248;2023-04-01T03:41:35;98729.78;;;7.88;98.98
51359;BME280;37448;51.588;7.248;2023-04-01T03:43:36;98725.50;;;7.87;99.19
51359;BME280;37448;51.588;7.248;2023-04-01T03:45:45;98725.50;;;7.87;99.19
51359;BME280;37448;51.588;7.248;2023-04-01T03:47:47;98727.19;;;7.88;99.50
51359;BME280;37448;51.588;7.248;2023-04-01T03:49:47;98722.81;;;7.88;99.24
51359;BME280;37448;51.588;7.248;2023-04-01T03:51:47;98725.38;;;7.90;99.24
51359;BME280;37448;51.588;7.248;2023-04-01T03:53:48;98725.50;;;7.87;99.86
51359;BME280;37448;51.588;7.248;2023-04-01T03:55:50;98723.75;;;7.87;99.86
51359;BME280;37448;51.588;7.248;2023-04-01T03:57:51;98726.41;;;7.86;100.00
51359;BME280;37448;51.588;7.248;2023-04-01T03:59:52;98727.31;;;7.85;100.00
51359;BME280;37448;51.588;7.248;2023-04-01T04:01:53;98725.63;;;7.84;100.00
51359;BME280;37448;51.588;7.248;2023-04-01T04:03:53;98724.50;;;7.89;100.00
51359;BME280;37448;51.588;7.248;2023-04-01T04:05:53;98727.31;;;7.85;100.00
51359;BME280;37448;51.588;7.248;2023-04-01T04:07:55;98723.69;;;7.89;100.00
51359;BME280;37448;51.588;7.248;2023-04-01T04:09:56;98721.13;;;7.87;100.00
51359;BME280;37448;51.588;7.248;2023-04-01T04:11:57;98721.09;;;7.89;99.88
51359;BME280;37448;51.588;7.248;2023-04-01T04:13:57;98728.94;;;7.87;100.00
51359;BME280;37448;51.588;7.248;2023-04-01T04:15:58;98727.19;;;7.88;100.00
51359;BME280;37448;51.588;7.248;2023-04-01T04:17:58;98733.19;;;7.90;100.00
51359;BME280;37448;51.588;7.248;2023-04-01T04:19:59;98730.56;;;7.90;100.00
51359;BME280;37448;51.588;7.248;2023-04-01T04:21:59;98738.41;;;7.88;100.00
51359;BME280;37448;51.588;7.248;2023-04-01T04:24:02;98733.19;;;7.90;99.70
51359;BME280;37448;51.588;7.248;2023-04-01T04:26:18;98732.25;;;7.91;99.83
51359;BME280;37448;51.588;7.248;2023-04-01T04:28:26;98733.94;;;7.92;99.69
51359;BME280;37448;51.588;7.248;2023-04-01T04:30:27;98735.63;;;7.93;99.71
51359;BME280;37448;51.588;7.248;2023-04-01T04:32:28;98736.59;;;7.90;100.00
51359;BME280;37448;51.588;7.248;2023-04-01T04:34:28;98744.34;;;7.92;99.68
51359;BME280;37448;51.588;7.248;2023-04-01T04:36:29;98734.78;;;7.93;100.00
51359;BME280;37448;51.588;7.248;2023-04-01T04:38:29;98744.34;;;7.92;99.85
51359;BME280;37448;51.588;7.248;2023-04-01T04:40:30;98741.81;;;7.90;99.43
51359;BME280;37448;51.588;7.248;2023-04-01T04:42:30;98746.16;;;7.90;100.00
51359;BME280;37448;51.588;7.248;2023-04-01T04:44:36;98740.06;;;7.91;100.00
51359;BME280;37448;51.588;7.248;2023-04-01T04:46:36;98744.47;;;7.89;99.43
51359;BME280;37448;51.588;7.248;2023-04-01T04:48:46;98747.13;;;7.87;99.61
51359;BME280;37448;51.588;7.248;2023-04-01T04:50:50;98747.91;;;7.89;100.00
51359;BME280;37448;51.588;7.248;2023-04-01T04:52:52;98745.31;;;7.89;99.97
51359;BME280;37448;51.588;7.248;2023-04-01T04:54:53;98742.66;;;7.91;100.00
51359;BME280;37448;51.588;7.248;2023-04-01T04:56:54;98746.16;;;7.90;99.86
51359;BME280;37448;51.588;7.248;2023-04-01T04:58:55;98757.34;;;7.92;99.99
51359;BME280;37448;51.588;7.248;2023-04-01T05:01:11;98754.78;;;7.90;99.68
51359;BME280;37448;51.588;7.248;2023-04-01T05:03:13;98756.47;;;7.92;100.00
51359;BME280;37448;51.588;7.248;2023-04-01T05:05:13;98748.69;;;7.92;99.81
51359;BME280;37448;51.588;7.248;2023-04-01T05:07:14;98756.56;;;7.90;100.00
51359;BME280;37448;51.588;7.248;2023-04-01T05:09:15;98753.06;;;7.91;100.00
51359;BME280;37448;51.588;7.248;2023-04-01T05:11:17;98760.00;;;7.90;99.92
51359;BME280;37448;51.588;7.248;2023-04-01T05:13:18;98764.38;;;7.90;99.82
51359;BME280;37448;51.588;7.248;2023-04-01T05:15:21;98759.22;;;7.88;100.00
51359;BME280;37448;51.588;7.248;2023-04-01T05:17:21;98767.09;;;7.87;100.00
51359;BME280;37448;51.588;7.248;2023-04-01T05:19:22;98767.00;;;7.88;99.72
51359;BME280;37448;51.588;7.248;2023-04-01T05:21:22;98764.41;;;7.88;99.89
51359;BME280;37448;51.588;7.248;2023-04-01T05:23:23;98763.59;;;7.88;99.80
51359;BME280;37448;51.588;7.248;2023-04-01T05:25:23;98765.16;;;7.92;99.70
51359;BME280;37448;51.588;7.248;2023-04-01T05:27:24;98766.06;;;7.91;99.72
51359;BME280;37448;51.588;7.248;2023-04-01T05:29:25;98765.97;;;7.93;100.00
51359;BME280;37448;51.588;7.248;2023-04-01T05:31:31;98762.41;;;7.95;99.97
51359;BME280;37448;51.588;7.248;2023-04-01T05:33:32;98773.59;;;7.97;99.93
51359;BME280;37448;51.588;7.248;2023-04-01T05:35:33;98771.91;;;7.96;99.81
51359;BME280;37448;51.588;7.248;2023-04-01T05:37:34;98772.81;;;7.95;100.00
51359;BME280;37448;51.588;7.248;2023-04-01T05:39:39;98775.41;;;7.95;99.63
51359;BME280;37448;51.588;7.248;2023-04-01T05:41:41;98778.75;;;7.99;100.00
51359;BME280;37448;51.588;7.248;2023-04-01T05:43:42;98777.06;;;7.98;100.00
51359;BME280;37448;51.588;7.248;2023-04-01T05:46:01;98781.25;;;8.00;100.00
51359;BME280;37448;51.588;7.248;2023-04-01T05:48:19;98777.72;;;8.03;100.00
51359;BME280;37448;51.588;7.248;2023-04-01T05:50:20;98783.88;;;8.00;100.00
51359;BME280;37448;51.588;7.248;2023-04-01T05:52:20;98782.31;;;7.96;99.85
51359;BME280;37448;51.588;7.248;2023-04-01T05:54:21;98785.56;;;8.01;100.00
51359;BME280;37448;51.588;7.248;2023-04-01T05:56:22;98783.94;;;7.99;100.00
51359;BME280;37448;51.588;7.248;2023-04-01T05:58:25;98785.56;;;8.01;100.00
51359;BME280;37448;51.588;7.248;2023-04-01T06:00:25;98785.44;;;8.04;100.00
51359;BME280;37448;51.588;7.248;2023-04-01T06:02:26;98783.69;;;8.05;100.00
51359;BME280;37448;51.588;7.248;2023-04-01T06:04:33;98789.84;;;8.02;100.00
51359;BME280;37448;51.588;7.248;2023-04-01T06:06:35;98793.91;;;8.10;100.00
51359;BME280;37448;51.588;7.248;2023-04-01T06:08:42;98787.97;;;8.06;100.00
51359;BME280;37448;51.588;7.248;2023-04-01T06:13:01;98796.50;;;8.10;100.00
51359;BME280;37448;51.588;7.248;2023-04-01T06:19:56;98800.81;;;8.11;100.00
51359;BME280;37448;51.588;7.248;2023-04-01T06:22:31;98799.88;;;8.12;100.00
51359;BME280;37448;51.588;7.248;2023-04-01T06:29:50;98801.44;;;8.16;100.00
51359;BME280;37448;51.588;7.248;2023-04-01T06:41:31;98810.22;;;8.13;100.00
51359;BME280;37448;51.588;7.248;2023-04-01T06:44:07;98814.50;;;8.14;100.00
51359;BME280;37448;51.588;7.248;2023-04-01T06:46:44;98817.97;;;8.15;100.00
51359;BME280;37448;51.588;7.248;2023-04-01T06:49:36;98819.66;;;8.16;100.00
51359;BME280;37448;51.588;7.248;2023-04-01T06:54:56;98819.66;;;8.16;100.00
51359;BME280;37448;51.588;7.248;2023-04-01T06:57:51;98825.69;;;8.16;100.00
51359;BME280;37448;51.588;7.248;2023-04-01T06:59:55;98829.06;;;8.18;100.00
51359;BME280;37448;51.588;7.248;2023-04-01T07:02:05;98823.94;;;8.17;100.00
51359;BME280;37448;51.588;7.248;2023-04-01T07:04:23;98826.53;;;8.17;100.00
51359;BME280;37448;51.588;7.248;2023-04-01T07:06:30;98830.06;;;8.16;100.00
51359;BME280;37448;51.588;7.248;2023-04-01T07:08:36;98833.44;;;8.18;100.00
51359;BME280;37448;51.588;7.248;2023-04-01T07:13:10;98830.84;;;8.18;100.00
51359;BME280;37448;51.588;7.248;2023-04-01T07:15:38;98832.56;;;8.17;100.00
51359;BME280;37448;51.588;7.248;2023-04-01T07:17:43;98843.84;;;8.18;100.00
51359;BME280;37448;51.588;7.248;2023-04-01T07:19:47;98835.25;;;8.16;100.00
51359;BME280;37448;51.588;7.248;2023-04-01T07:21:54;98834.38;;;8.15;100.00
51359;BME280;37448;51.588;7.248;2023-04-01T07:24:09;98831.75;;;8.17;100.00
51359;BME280;37448;51.588;7.248;2023-04-01T07:26:20;98843.84;;;8.18;100.00
51359;BME280;37448;51.588;7.248;2023-04-01T07:28:41;98848.00;;;8.22;100.00
51359;BME280;37448;51.588;7.248;2023-04-01T07:33:44;98852.28;;;8.23;100.00
51359;BME280;37448;51.588;7.248;2023-04-01T07:38:24;98856.44;;;8.27;100.00
51359;BME280;37448;51.588;7.248;2023-04-01T07:40:45;98853.94;;;8.26;100.00
51359;BME280;37448;51.588;7.248;2023-04-01T07:47:41;98860.63;;;8.31;100.00
51359;BME280;37448;51.588;7.248;2023-04-01T07:52:31;98863.22;;;8.31;100.00
51359;BME280;37448;51.588;7.248;2023-04-01T07:54:43;98867.53;;;8.32;100.00
51359;BME280;37448;51.588;7.248;2023-04-01T07:59:44;98870.66;;;8.41;100.00
51359;BME280;37448;51.588;7.248;2023-04-01T08:02:15;98877.56;;;8.42;100.00
51359;BME280;37448;51.588;7.248;2023-04-01T08:07:07;98876.59;;;8.44;100.00
51359;BME280;37448;51.588;7.248;2023-04-01T08:09:28;98880.81;;;8.47;100.00
51359;BME280;37448;51.588;7.248;2023-04-01T08:12:18;98884.47;;;8.43;100.00
51359;BME280;37448;51.588;7.248;2023-04-01T08:17:32;98882.75;;;8.42;100.00
51359;BME280;37448;51.588;7.248;2023-04-01T08:22:14;98891.41;;;8.42;100.00
51359;BME280;37448;51.588;7.248;2023-04-01T08:24:38;98893.16;;;8.42;100.00
51359;BME280;37448;51.588;7.248;2023-04-01T08:26:49;98896.69;;;8.41;99.98
51359;BME280;37448;51.588;7.248;2023-04-01T08:29:08;98896.56;;;8.44;100.00
51359;BME280;37448;51.588;7.248;2023-04-01T08:31:36;98899.31;;;8.39;100.00
51359;BME280;37448;51.588;7.248;2023-04-01T08:33:40;98901.75;;;8.44;100.00
51359;BME280;37448;51.588;7.248;2023-04-01T08:35:59;98904.31;;;8.45;100.00
51359;BME280;37448;51.588;7.248;2023-04-01T08:38:11;98903.44;;;8.45;100.00
51359;BME280;37448;51.588;7.248;2023-04-01T08:40:39;98906.97;;;8.44;100.00
51359;BME280;37448;51.588;7.248;2023-04-01T08:42:51;98911.13;;;8.48;100.00
51359;BME280;37448;51.588;7.248;2023-04-01T08:47:20;98911.03;;;8.51;100.00
51359;BME280;37448;51.588;7.248;2023-04-01T08:52:18;98913.50;;;8.54;100.00
51359;BME280;37448;51.588;7.248;2023-04-01T08:57:01;98920.41;;;8.55;100.00
51359;BME280;37448;51.588;7.248;2023-04-01T09:10:08;98936.00;;;8.55;100.00
51359;BME280;37448;51.588;7.248;2023-04-01T09:17:32;98944.84;;;8.51;100.00
51359;BME280;37448;51.588;7.248;2023-04-01T09:20:07;98945.59;;;8.55;100.00
51359;BME280;37448;51.588;7.248;2023-04-01T09:25:02;98949.00;;;8.55;100.00
51359;BME280;37448;51.588;7.248;2023-04-01T09:34:25;98956.00;;;8.55;100.00
51359;BME280;37448;51.588;7.248;2023-04-01T09:36:46;98967.22;;;8.55;100.00
51359;BME280;37448;51.588;7.248;2023-04-01T09:38:56;98961.06;;;8.58;100.00
51359;BME280;37448;51.588;7.248;2023-04-01T09:51:45;98973.53;;;8.72;100.00
51359;BME280;37448;51.588;7.248;2023-04-01T09:53:56;98974.38;;;8.72;100.00
51359;BME280;37448;51.588;7.248;2023-04-01T10:04:15;98983.44;;;8.84;100.00
51359;BME280;37448;51.588;7.248;2023-04-01T10:13:48;98988.28;;;8.94;100.00
51359;BME280;37448;51.588;7.248;2023-04-01T10:16:32;98998.28;;;9.03;100.00
51359;BME280;37448;51.588;7.248;2023-04-01T10:18:51;99005.09;;;9.07;100.00
51359;BME280;37448;51.588;7.248;2023-04-01T10:21:16;98999.88;;;9.07;100.00
51359;BME280;37448;51.588;7.248;2023-04-01T10:31:28;99004.22;;;9.07;100.00
51359;BME280;37448;51.588;7.248;2023-04-01T10:33:50;99008.63;;;9.06;100.00
51359;BME280;37448;51.588;7.248;2023-04-01T10:38:50;99017.19;;;9.08;100.00
51359;BME280;37448;51.588;7.248;2023-04-01T10:44:27;99011.31;;;9.03;100.00
51359;BME280;37448;51.588;7.248;2023-04-01T11:03:37;99030.25;;;9.29;100.00
51359;BME280;37448;51.588;7.248;2023-04-01T11:13:54;99045.06;;;9.27;100.00
51359;BME280;37448;51.588;7.248;2023-04-01T11:23:22;99053.69;;;9.29;100.00
51359;BME280;37448;51.588;7.248;2023-04-01T11:25:39;99054.72;;;9.25;100.00
51359;BME280;37448;51.588;7.248;2023-04-01T11:30:54;99055.25;;;9.33;100.00
51359;BME280;37448;51.588;7.248;2023-04-01T11:33:07;99062.16;;;9.34;100.00
51359;BME280;37448;51.588;7.248;2023-04-01T11:35:48;99055.38;;;9.30;100.00
51359;BME280;37448;51.588;7.248;2023-04-01T11:38:17;99059.41;;;9.16;100.00
51359;BME280;37448;51.588;7.248;2023-04-01T11:40:54;99067.34;;;9.13;99.72
51359;BME280;37448;51.588;7.248;2023-04-01T11:45:55;99065.38;;;9.18;100.00
51359;BME280;37448;51.588;7.248;2023-04-01T11:55:23;99079.75;;;9.29;100.00
51359;BME280;37448;51.588;7.248;2023-04-01T12:04:10;99094.13;;;9.38;100.00
51359;BME280;37448;51.588;7.248;2023-04-01T12:06:34;99095.81;;;9.39;100.00
51359;BME280;37448;51.588;7.248;2023-04-01T12:10:57;99105.59;;;9.33;99.88
51359;BME280;37448;51.588;7.248;2023-04-01T12:15:22;99105.09;;;9.24;99.47
51359;BME280;37448;51.588;7.248;2023-04-01T12:20:28;99118.91;;;9.26;99.99
51359;BME280;37448;51.588;7.248;2023-04-01T12:24:45;99116.13;;;9.30;100.00
51359;BME280;37448;51.588;7.248;2023-04-01T12:27:02;99109.22;;;9.29;99.78
51359;BME280;37448;51.588;7.248;2023-04-01T12:31:58;99129.25;;;9.29;99.69
51359;BME280;37448;51.588;7.248;2023-04-01T12:34:38;99133.41;;;9.33;100.00
51359;BME280;37448;51.588;7.248;2023-04-01T12:36:47;99128.38;;;9.28;100.00
51359;BME280;37448;51.588;7.248;2023-04-01T12:39:29;99127.41;;;9.31;100.00
51359;BME280;37448;51.588;7.248;2023-04-01T12:44:11;99144.97;;;9.26;99.42
51359;BME280;37448;51.588;7.248;2023-04-01T12:51:09;99142.47;;;9.23;99.55
51359;BME280;37448;51.588;7.248;2023-04-01T12:55:48;99153.34;;;9.34;100.00
51359;BME280;37448;51.588;7.248;2023-04-01T13:00:30;99158.91;;;9.47;100.00
51359;BME280;37448;51.588;7.248;2023-04-01T13:02:45;99166.47;;;9.53;100.00
51359;BME280;37448;51.588;7.248;2023-04-01T13:05:35;99167.25;;;9.55;100.00
51359;BME280;37448;51.588;7.248;2023-04-01T13:07:55;99174.88;;;9.60;100.00
51359;BME280;37448;51.588;7.248;2023-04-01T13:12:40;99184.28;;;9.64;100.00
51359;BME280;37448;51.588;7.248;2023-04-01T13:15:05;99181.94;;;9.58;100.00
51359;BME280;37448;51.588;7.248;2023-04-01T13:17:26;99192.34;;;9.58;99.91
51359;BME280;37448;51.588;7.248;2023-04-01T13:19:38;99189.19;;;9.50;99.73
51359;BME280;37448;51.588;7.248;2023-04-01T13:21:47;99190.88;;;9.51;99.96
51359;BME280;37448;51.588;7.248;2023-04-01T13:26:41;99195.13;;;9.53;99.84
51359;BME280;37448;51.588;7.248;2023-04-01T13:29:09;99200.41;;;9.52;100.00
51359;BME280;37448;51.588;7.248;2023-04-01T13:33:55;99202.16;;;9.51;100.00
51359;BME280;37448;51.588;7.248;2023-04-01T13:42:47;99210.03;;;9.50;99.70
51359;BME280;37448;51.588;7.248;2023-04-01T13:44:56;99214.16;;;9.55;99.65
51359;BME280;37448;51.588;7.248;2023-04-01T13:49:38;99211.56;;;9.55;100.00
51359;BME280;37448;51.588;7.248;2023-04-01T13:51:52;99216.16;;;9.48;99.40
51359;BME280;37448;51.588;7.248;2023-04-01T13:56:23;99222.28;;;9.47;99.33
51359;BME280;37448;51.588;7.248;2023-04-01T14:05:51;99232.13;;;9.41;99.92
51359;BME280;37448;51.588;7.248;2023-04-01T14:10:23;99243.41;;;9.40;100.00
51359;BME280;37448;51.588;7.248;2023-04-01T14:13:00;99238.41;;;9.35;100.00
51359;BME280;37448;51.588;7.248;2023-04-01T14:20:16;99252.47;;;9.31;99.94
51359;BME280;37448;51.588;7.248;2023-04-01T14:26:59;99260.31;;;9.29;99.46
51359;BME280;37448;51.588;7.248;2023-04-01T14:29:31;99261.09;;;9.31;100.00
51359;BME280;37448;51.588;7.248;2023-04-01T14:32:06;99262.13;;;9.27;99.70
51359;BME280;37448;51.588;7.248;2023-04-01T14:34:43;99267.19;;;9.32;100.00
51359;BME280;37448;51.588;7.248;2023-04-01T14:37:03;99274.13;;;9.31;99.92
51359;BME280;37448;51.588;7.248;2023-04-01T14:44:22;99279.84;;;9.41;100.00
51359;BME280;37448;51.588;7.248;2023-04-01T14:50:48;99279.59;;;9.47;100.00
51359;BME280;37448;51.588;7.248;2023-04-01T14:53:13;99281.78;;;9.58;100.00
51359;BME280;37448;51.588;7.248;2023-04-01T14:55:36;99282.47;;;9.63;100.00
51359;BME280;37448;51.588;7.248;2023-04-01T15:00:18;99285.69;;;9.70;100.00
51359;BME280;37448;51.588;7.248;2023-04-01T15:09:58;99304.84;;;9.69;99.93
51359;BME280;37448;51.588;7.248;2023-04-01T15:19:14;99309.59;;;9.82;100.00
51359;BME280;37448;51.588;7.248;2023-04-01T15:28:24;99327.00;;;9.57;99.47
51359;BME280;37448;51.588;7.248;2023-04-01T15:30:44;99325.31;;;9.56;99.52
51359;BME280;37448;51.588;7.248;2023-04-01T15:37:56;99335.34;;;9.43;99.44
51359;BME280;37448;51.588;7.248;2023-04-01T15:49:35;99357.09;;;9.42;100.00
51359;BME280;37448;51.588;7.248;2023-04-01T15:59:08;99359.03;;;9.37;100.00
51359;BME280;37448;51.588;7.248;2023-04-01T16:01:16;99361.53;;;9.40;100.00
51359;BME280;37448;51.588;7.248;2023-04-01T16:03:36;99363.47;;;9.35;100.00
51359;BME280;37448;51.588;7.248;2023-04-01T16:15:41;99373.03;;;9.34;100.00
51359;BME280;37448;51.588;7.248;2023-04-01T16:18:06;99374.69;;;9.37;100.00
51359;BME280;37448;51.588;7.248;2023-04-01T16:22:30;99386.78;;;9.38;100.00
51359;BME280;37448;51.588;7.248;2023-04-01T16:24:39;99387.69;;;9.37;100.00
51359;BME280;37448;51.588;7.248;2023-04-01T16:26:53;99387.81;;;9.34;100.00
51359;BME280;37448;51.588;7.248;2023-04-01T16:29:06;99387.03;;;9.32;100.00
51359;BME280;37448;51.588;7.248;2023-04-01T16:31:14;99393.16;;;9.31;100.00
51359;BME280;37448;51.588;7.248;2023-04-01T16:33:28;99401.03;;;9.28;100.00
51359;BME280;37448;51.588;7.248;2023-04-01T16:35:37;99394.25;;;9.24;100.00
51359;BME280;37448;51.588;7.248;2023-04-01T16:38:09;99395.28;;;9.19;100.00
51359;BME280;37448;51.588;7.248;2023-04-01T16:40:16;99397.88;;;9.19;100.00
51359;BME280;37448;51.588;7.248;2023-04-01T16:44:52;99399.72;;;9.16;100.00
51359;BME280;37448;51.588;7.248;2023-04-01T16:46:58;99408.38;;;9.18;100.00
51359;BME280;37448;51.588;7.248;2023-04-01T16:51:15;99411.88;;;9.17;100.00
51359;BME280;37448;51.588;7.248;2023-04-01T16:53:31;99418.81;;;9.16;100.00
51359;BME280;37448;51.588;7.248;2023-04-01T16:55:48;99418.03;;;9.14;100.00
51359;BME280;37448;51.588;7.248;2023-04-01T16:57:59;99425.72;;;9.17;100.00
51359;BME280;37448;51.588;7.248;2023-04-01T17:00:17;99432.63;;;9.18;100.00
51359;BME280;37448;51.588;7.248;2023-04-01T17:02:28;99430.78;;;9.22;100.00
51359;BME280;37448;51.588;7.248;2023-04-01T17:04:37;99436.72;;;9.26;100.00